createdAt,value
2022-12-03T00:03:51.159Z,97856.19
2022-12-03T00:08:57.469Z,97840.22
2022-12-03T00:14:06.398Z,97653.34
2022-12-03T00:19:10.027Z,97833.03
2022-12-03T00:24:13.619Z,97794.72
2022-12-03T00:29:17.259Z,97826.56
2022-12-03T00:34:30.704Z,97771.63
2022-12-03T00:39:34.482Z,97866.69
2022-12-03T00:44:38.102Z,97832.91
2022-12-03T00:49:42.203Z,97721.50
2022-12-03T00:54:46.276Z,97859.84
2022-12-03T00:59:49.850Z,97806.16
2022-12-03T01:04:53.718Z,97616.16
2022-12-03T01:09:57.622Z,97888.59
2022-12-03T01:15:01.356Z,97849.44
2022-12-03T01:20:07.032Z,97881.16
2022-12-03T01:25:11.274Z,97817.47
2022-12-03T01:30:15.165Z,97895.56
2022-12-03T01:35:19.038Z,97765.78
2022-12-03T01:40:22.928Z,97795.22
2022-12-03T01:45:26.530Z,97779.38
2022-12-03T01:50:34.667Z,97800.03
2022-12-03T01:55:39.124Z,97864.72
2022-12-03T02:00:42.772Z,97744.41
2022-12-03T02:05:46.474Z,97745.13
2022-12-03T02:10:49.944Z,97836.47
2022-12-03T02:15:53.513Z,97814.84
2022-12-03T02:21:07.384Z,97825.88
2022-12-03T02:26:21.139Z,97824.94
2022-12-03T02:31:25.292Z,97742.31
2022-12-03T02:36:28.882Z,97546.78
2022-12-03T02:41:51.239Z,97569.34
2022-12-03T02:46:56.722Z,97772.09
2022-12-03T02:52:00.254Z,97760.06
2022-12-03T02:57:05.101Z,97814.34
2022-12-03T03:02:12.556Z,97747.94
2022-12-03T03:07:20.345Z,97769.53
2022-12-03T03:12:24.315Z,97706.31
2022-12-03T03:17:28.350Z,97616.34
2022-12-03T03:22:43.983Z,97842.16
2022-12-03T03:27:47.735Z,97833.31
2022-12-03T03:32:51.222Z,97700.47
2022-12-03T03:37:57.215Z,97552.03
2022-12-03T03:43:01.617Z,97715.28
2022-12-03T03:48:05.879Z,97838.91
2022-12-03T03:53:09.595Z,97835.38
2022-12-03T03:58:13.219Z,97785.38
2022-12-03T04:03:18.101Z,97788.81
2022-12-03T04:08:27.316Z,97847.47
2022-12-03T04:13:30.833Z,97857.03
2022-12-03T04:18:46.391Z,97852.72
2022-12-03T04:23:49.816Z,97837.84
2022-12-03T04:28:53.855Z,97827.31
2022-12-03T04:34:24.207Z,97524.97
2022-12-03T04:39:27.711Z,97798.06
2022-12-03T04:44:38.665Z,97790.13
2022-12-03T04:49:45.857Z,97829.97
2022-12-03T04:54:49.976Z,97657.69
2022-12-03T04:59:53.403Z,97717.66
2022-12-03T05:04:57.249Z,97825.66
2022-12-03T05:10:00.771Z,97834.19
2022-12-03T05:15:06.315Z,97699.38
2022-12-03T05:20:38.541Z,97815.00
2022-12-03T05:25:42.405Z,97817.84
2022-12-03T05:30:46.110Z,97682.16
2022-12-03T05:35:49.825Z,97692.53
2022-12-03T05:40:53.331Z,97561.81
2022-12-03T05:45:56.995Z,97703.53
2022-12-03T05:51:02.360Z,97580.72
2022-12-03T05:56:15.881Z,97734.41
2022-12-03T06:01:19.457Z,97710.22
2022-12-03T06:06:23.071Z,97510.91
2022-12-03T06:11:26.698Z,97798.28
2022-12-03T06:16:30.719Z,97514.16
2022-12-03T06:21:35.942Z,97746.34
2022-12-03T06:26:39.454Z,97774.06
2022-12-03T06:31:43.134Z,97651.41
2022-12-03T06:36:47.748Z,97765.09
2022-12-03T06:41:51.351Z,97703.91
2022-12-03T06:46:54.838Z,97703.69
2022-12-03T06:51:58.380Z,97747.69
2022-12-03T06:57:01.816Z,97602.94
2022-12-03T07:02:06.094Z,97788.03
2022-12-03T07:07:09.628Z,97696.16
2022-12-03T07:12:13.222Z,97737.38
2022-12-03T07:17:16.640Z,97764.13
2022-12-03T07:22:20.090Z,97778.94
2022-12-03T07:27:24.114Z,97709.94
2022-12-03T07:32:27.552Z,97714.31
2022-12-03T07:37:31.377Z,97570.97
2022-12-03T07:42:34.788Z,97772.91
2022-12-03T07:47:38.198Z,97763.06
2022-12-03T07:52:41.836Z,97819.03
2022-12-03T07:57:45.726Z,97731.47
2022-12-03T08:02:49.254Z,97518.28
2022-12-03T08:08:02.849Z,97723.66
2022-12-03T08:13:14.004Z,97827.53
2022-12-03T08:18:21.194Z,97780.22
2022-12-03T08:23:26.390Z,97843.41
2022-12-03T08:28:29.893Z,97842.38
2022-12-03T08:33:36.230Z,97617.09
2022-12-03T08:38:39.681Z,97773.81
2022-12-03T08:43:44.699Z,97762.44
2022-12-03T08:48:49.576Z,97694.91
2022-12-03T08:54:02.201Z,97778.22
2022-12-03T08:59:22.214Z,97810.63
2022-12-03T09:04:44.882Z,97772.72
2022-12-03T09:09:49.100Z,97783.00
2022-12-03T09:14:52.961Z,97707.78
2022-12-03T09:19:56.526Z,97797.47
2022-12-03T09:25:00.008Z,97838.16
2022-12-03T09:30:04.748Z,97818.88
2022-12-03T09:35:08.924Z,97839.88
2022-12-03T09:40:13.322Z,97774.72
2022-12-03T09:45:18.163Z,97835.13
2022-12-03T09:50:27.300Z,97833.44
2022-12-03T09:55:31.350Z,97736.28
2022-12-03T10:00:34.820Z,97627.72
2022-12-03T10:05:39.233Z,97721.53
2022-12-03T10:10:45.591Z,97834.84
2022-12-03T10:15:49.634Z,97699.56
2022-12-03T10:20:53.963Z,97821.09
2022-12-03T10:26:00.691Z,97817.69
2022-12-03T10:31:09.714Z,97809.88
2022-12-03T10:36:22.443Z,97809.19
2022-12-03T10:41:29.012Z,97812.56
2022-12-03T10:46:32.622Z,97707.75
2022-12-03T10:51:40.266Z,97718.00
2022-12-03T10:56:44.518Z,97765.81
2022-12-03T11:01:48.503Z,97794.97
2022-12-03T11:06:52.285Z,97784.28
2022-12-03T11:11:56.009Z,97711.84
2022-12-03T11:16:59.380Z,97757.84
2022-12-03T11:22:06.243Z,97767.28
2022-12-03T11:27:09.843Z,97745.31
2022-12-03T11:32:39.455Z,97750.69
2022-12-03T11:37:43.172Z,97720.34
2022-12-03T11:42:56.641Z,97681.38
2022-12-03T11:48:00.004Z,97702.81
2022-12-03T11:53:14.287Z,97700.78
2022-12-03T11:58:29.064Z,97649.50
2022-12-03T12:03:51.752Z,97633.81
2022-12-03T12:09:05.384Z,97641.25
2022-12-03T12:14:13.976Z,97672.22
2022-12-03T12:19:37.742Z,97662.44
2022-12-03T12:24:41.570Z,97664.47
2022-12-03T12:29:49.327Z,97643.91
2022-12-03T12:34:57.762Z,97653.56
2022-12-03T12:40:03.703Z,97650.69
2022-12-03T12:45:15.284Z,97659.31
2022-12-03T12:50:19.637Z,97649.81
2022-12-03T12:55:24.260Z,97650.44
2022-12-03T13:00:27.803Z,97641.94
2022-12-03T13:05:42.745Z,97608.84
2022-12-03T13:10:47.886Z,97603.78
2022-12-03T13:15:53.148Z,97658.72
2022-12-03T13:20:56.939Z,97654.88
2022-12-03T13:26:21.396Z,97577.41
2022-12-03T13:31:34.277Z,97649.91
2022-12-03T13:36:43.383Z,97551.41
2022-12-03T13:42:06.338Z,97618.16
2022-12-03T13:47:24.697Z,97654.41
2022-12-03T13:52:28.360Z,97543.38
2022-12-03T13:57:32.172Z,97460.97
2022-12-03T14:02:46.158Z,97622.81
2022-12-03T14:07:49.626Z,97657.38
2022-12-03T14:12:53.311Z,97617.38
2022-12-03T14:17:56.811Z,97598.50
2022-12-03T14:23:00.295Z,97647.69
2022-12-03T14:28:04.899Z,97558.28
2022-12-03T14:33:08.918Z,97647.38
2022-12-03T14:38:15.967Z,97605.72
2022-12-03T14:43:20.090Z,97599.97
2022-12-03T14:48:23.597Z,97631.72
2022-12-03T14:53:27.581Z,97658.66
2022-12-03T14:58:31.104Z,97666.13
2022-12-03T15:03:34.599Z,97688.69
2022-12-03T15:08:38.076Z,97569.84
2022-12-03T15:13:41.545Z,97710.91
2022-12-03T15:18:45.047Z,97670.41
2022-12-03T15:23:48.717Z,97618.09
2022-12-03T15:28:54.385Z,97436.56
2022-12-03T15:33:58.591Z,97536.66
2022-12-03T15:39:09.842Z,97489.19
2022-12-03T15:44:16.953Z,97526.88
2022-12-03T15:49:20.889Z,97547.81
2022-12-03T15:54:24.470Z,97415.78
2022-12-03T15:59:28.028Z,97634.47
2022-12-03T16:04:41.946Z,97649.91
2022-12-03T16:09:45.477Z,97572.03
2022-12-03T16:14:49.389Z,97474.09
2022-12-03T16:19:53.219Z,97696.25
2022-12-03T16:24:56.995Z,97684.00
2022-12-03T16:30:00.509Z,97540.16
2022-12-03T16:35:05.569Z,97574.13
2022-12-03T16:40:10.071Z,97557.75
2022-12-03T16:45:34.131Z,97694.19
2022-12-03T16:50:38.798Z,97607.56
2022-12-03T16:55:42.429Z,97610.09
2022-12-03T17:00:45.912Z,97611.66
2022-12-03T17:05:50.196Z,97697.06
2022-12-03T17:10:53.765Z,97666.97
2022-12-03T17:15:57.552Z,97571.34
2022-12-03T17:21:01.475Z,97706.53
2022-12-03T17:26:05.139Z,97485.03
2022-12-03T17:31:09.538Z,97624.09
2022-12-03T17:36:13.687Z,97587.50
2022-12-03T17:41:17.495Z,97671.69
2022-12-03T17:46:21.530Z,97587.72
2022-12-03T17:51:25.828Z,97653.44
2022-12-03T17:56:29.616Z,97703.03
2022-12-03T18:01:33.360Z,97566.34
2022-12-03T18:06:37.358Z,97626.38
2022-12-03T18:11:40.997Z,97644.06
2022-12-03T18:16:44.620Z,97568.47
2022-12-03T18:21:48.318Z,97594.13
2022-12-03T18:26:51.952Z,97608.56
2022-12-03T18:31:55.714Z,97625.78
2022-12-03T18:36:59.499Z,97653.84
2022-12-03T18:42:07.484Z,97729.22
2022-12-03T18:47:19.004Z,97641.97
2022-12-03T18:52:28.365Z,97664.19
2022-12-03T18:57:32.054Z,97687.47
2022-12-03T19:03:02.020Z,97557.16
2022-12-03T19:07:59.757Z,97651.94
2022-12-03T19:13:16.494Z,97661.63
2022-12-03T19:18:20.242Z,97660.38
2022-12-03T19:23:24.907Z,97723.81
2022-12-03T19:28:30.296Z,97715.19
2022-12-03T19:33:34.883Z,97680.50
2022-12-03T19:38:39.860Z,97723.00
2022-12-03T19:43:48.423Z,97657.97
2022-12-03T19:48:52.846Z,97695.84
2022-12-03T19:53:56.636Z,97597.09
2022-12-03T19:59:08.724Z,97701.44
2022-12-03T20:04:13.110Z,97714.44
2022-12-03T20:09:20.038Z,97622.13
2022-12-03T20:14:23.799Z,97536.81
2022-12-03T20:19:27.329Z,97502.31
2022-12-03T20:24:30.911Z,97707.78
2022-12-03T20:29:34.468Z,97623.75
2022-12-03T20:34:38.215Z,97614.13
2022-12-03T20:39:42.039Z,97644.06
2022-12-03T20:44:45.856Z,97635.16
2022-12-03T20:49:59.316Z,97677.06
2022-12-03T20:55:02.968Z,97654.31
2022-12-03T21:00:07.274Z,97690.69
2022-12-03T21:05:10.970Z,97632.50
2022-12-03T21:10:33.535Z,97494.28
2022-12-03T21:15:37.386Z,97493.47
2022-12-03T21:20:45.904Z,97519.72
2022-12-03T21:25:49.383Z,97568.84
2022-12-03T21:30:53.334Z,97607.75
2022-12-03T21:35:57.532Z,97598.50
2022-12-03T21:41:11.955Z,97493.47
2022-12-03T21:47:09.670Z,97654.56
2022-12-03T21:51:41.871Z,97629.88
2022-12-03T21:56:55.372Z,97582.47
2022-12-03T22:01:58.965Z,97429.34
2022-12-03T22:07:05.860Z,97611.53
2022-12-03T22:12:09.627Z,97615.06
2022-12-03T22:17:13.089Z,97417.44
2022-12-03T22:22:16.789Z,97465.56
2022-12-03T22:27:20.412Z,97579.81
2022-12-03T22:32:24.762Z,97632.47
2022-12-03T22:37:28.618Z,97628.25
2022-12-03T22:42:35.578Z,97621.53
2022-12-03T22:47:40.173Z,97492.84
2022-12-03T22:52:43.048Z,97579.31
2022-12-03T22:57:45.719Z,97564.63
2022-12-03T23:02:48.465Z,97583.03
2022-12-03T23:07:52.624Z,97476.69
2022-12-03T23:12:56.031Z,97501.66
2022-12-03T23:18:08.723Z,97466.41
2022-12-03T23:23:11.476Z,97309.34
2022-12-03T23:28:14.383Z,97361.88
2022-12-03T23:33:22.631Z,97543.47
2022-12-03T23:38:25.388Z,97360.16
2022-12-03T23:43:28.144Z,97463.47
2022-12-03T23:48:30.850Z,97429.00
2022-12-03T23:53:33.578Z,97404.75
2022-12-03T23:58:36.340Z,97540.34
